Saint-Ludger, Canada
Current Conditions -  °F | °C
As of 11:00 AM on Tuesday 21 Oct 2014 (Local Time) from CYSC Reporting Station
Light Rain Light Rain  
Wind Chill: 45°   Ceiling: 3700
Heat Index: 45°   Visibility: 9mi
Dew Point: 43°   Wind: 3mph
Humidity: 93%   Direction: 50°NE
Pressure: 30.03"   Gusts: NA
Location:  45.75°N, 70.7°W
Report Text: CYSC 211500Z AUTO 05003KT 9SM -RA OVC037 07/06 A3003 RMK SLP177
Loading
Personal Weather Stations






























Interactive Weather Map
Tropical Storm Tracking
New forecast layout! Learn more

10-Day Weather Forecast

Advertisements
Track Severe Weather on mobile